Iver Agile — IBHW — position and weather

sailwx.info

Track history (hours):
 
Tides and Currents Weather Stations Pressure Air Temp Water Temp Dewpoint Dewpoint Depression Visibility Wind Speed Wind Dir Waves Ship Positions

Iver Agile

Last reported at 2015-Mar-27 04:24 UTC. Time now 2015-Mar-29 16:05 UTC.
Position N 31°12' E 029°44'.

Length 110 m; draft 6.7 m.

Type: Tanker. MMSI: 247103700.

Date/timePositionNaut miles runAvg speedWind from/ knotsBaromVisibWave heightAir tempDewpointWater temp
2015-Mar-27 04:24N 31°12' E 029°44'0 0.0
2015-Mar-27 01:12N 31°12' E 029°44'0 0.0
2015-Mar-27 00:30N 31°12' E 029°44'0 0.0
2015-Mar-26 20:18N 31°12' E 029°44'0 0.0
2015-Mar-26 19:33N 31°12' E 029°44'0 0.0
2015-Mar-26 17:33N 31°12' E 029°44'0 0.0
2015-Mar-26 14:33N 31°12' E 029°44'0 0.0
2015-Mar-26 13:33N 31°12' E 029°44'0 0.0
2015-Mar-24 16:30N 31°12' E 029°44'  
2015-Mar-17 23:32N 35°52' E 025°31'1211.9
2015-Mar-17 22:33N 35°59' E 025°19'1211.8
2015-Mar-17 21:33N 36°05' E 025°07'1211.9
2015-Mar-17 20:33N 36°12' E 024°55'1512.2
2015-Mar-17 19:19N 36°21' E 024°39'8211.8
2015-Mar-17 12:22N 37°31' E 023°46'1012.6
2015-Mar-17 11:34N 37°41' E 023°42'1211.7
2015-Mar-17 10:34N 37°50' E 023°32'1212.3
2015-Mar-17 09:33N 37°52' E 023°17'  
Track history (hours):
 
Tides and Currents Weather Stations Pressure Air Temp Water Temp Dewpoint Dewpoint Depression Visibility Wind Speed Wind Dir Waves Ship Positions

Iver Agile

Last reported at 2015-Mar-27 04:24 UTC. Time now 2015-Mar-29 16:05 UTC.
Position N 31°12' E 029°44'.

Length 110 m; draft 6.7 m.

Type: Tanker. MMSI: 247103700.

Date/timePositionNaut miles runAvg speedWind from/ knotsBaromVisibWave heightAir tempDewpointWater temp
2015-Mar-27 04:24N 31°12' E 029°44'0 0.0
2015-Mar-27 01:12N 31°12' E 029°44'0 0.0
2015-Mar-27 00:30N 31°12' E 029°44'0 0.0
2015-Mar-26 20:18N 31°12' E 029°44'0 0.0
2015-Mar-26 19:33N 31°12' E 029°44'0 0.0
2015-Mar-26 17:33N 31°12' E 029°44'0 0.0
2015-Mar-26 14:33N 31°12' E 029°44'0 0.0
2015-Mar-26 13:33N 31°12' E 029°44'0 0.0
2015-Mar-24 16:30N 31°12' E 029°44'  
2015-Mar-17 23:32N 35°52' E 025°31'1211.9
2015-Mar-17 22:33N 35°59' E 025°19'1211.8
2015-Mar-17 21:33N 36°05' E 025°07'1211.9
2015-Mar-17 20:33N 36°12' E 024°55'1512.2
2015-Mar-17 19:19N 36°21' E 024°39'8211.8
2015-Mar-17 12:22N 37°31' E 023°46'1012.6
2015-Mar-17 11:34N 37°41' E 023°42'1211.7
2015-Mar-17 10:34N 37°50' E 023°32'1212.3
2015-Mar-17 09:33N 37°52' E 023°17'  

Dump ship's entire track history